Time;durP1;ratioP1;P1;durP2;ratioP2;P2;SDS_P1;SDS_P2;PMS_P1;PMS_P2;Temp;Humidity;BMP_temperature;BMP_pressure;BME280_temperature;BME280_humidity;BME280_pressure;Samples;Min_cycle;Max_cycle;Signal;HPM_P1;HPM_P2
2021/09/24 00:02:20;;;;;;;2.72;1.17;;;22.70;54.10;;;;;;6293104;28;20036;-72
2021/09/24 00:05:21;;;;;;;2.63;1.10;;;22.70;54.00;;;;;;6292956;28;20079;-72
2021/09/24 00:08:22;;;;;;;3.63;1.48;;;22.70;54.10;;;;;;6293217;28;20432;-72
2021/09/24 00:11:23;;;;;;;3.22;0.82;;;22.70;54.00;;;;;;6292598;28;20032;-72
2021/09/24 00:14:23;;;;;;;2.10;0.88;;;22.70;54.00;;;;;;6286205;28;20021;-72
2021/09/24 00:17:24;;;;;;;3.70;1.13;;;22.70;54.10;;;;;;6280775;28;20111;-72
2021/09/24 00:20:24;;;;;;;3.10;1.10;;;22.70;54.10;;;;;;6293382;28;20020;-72
2021/09/24 00:23:25;;;;;;;3.08;1.00;;;22.70;54.10;;;;;;6292873;28;20020;-72
2021/09/24 00:26:26;;;;;;;3.30;1.33;;;22.70;54.10;;;;;;6292952;28;20380;-72
2021/09/24 00:29:26;;;;;;;3.30;1.20;;;22.70;54.10;;;;;;6292428;28;20059;-72
2021/09/24 00:32:27;;;;;;;2.50;1.17;;;22.70;54.10;;;;;;6292295;28;20441;-72
2021/09/24 00:35:28;;;;;;;5.20;1.67;;;22.70;54.20;;;;;;6292561;28;20025;-72
2021/09/24 00:38:28;;;;;;;2.72;1.20;;;22.70;54.20;;;;;;6292553;28;20029;-72
2021/09/24 00:41:29;;;;;;;3.47;1.23;;;22.70;54.10;;;;;;6292141;28;20032;-72
2021/09/24 00:44:40;;;;;;;2.97;1.00;;;22.70;54.10;;;;;;6292435;28;20025;-72
2021/09/24 00:47:40;;;;;;;2.92;1.05;;;22.70;54.10;;;;;;6292198;28;20089;-73
2021/09/24 00:50:41;;;;;;;2.58;1.02;;;22.70;54.20;;;;;;6292384;28;20545;-72
2021/09/24 00:53:41;;;;;;;3.42;1.10;;;22.70;54.20;;;;;;6292090;28;20436;-72
2021/09/24 00:56:43;;;;;;;2.45;0.90;;;22.70;54.20;;;;;;6291976;28;20383;-72
2021/09/24 00:59:43;;;;;;;3.28;1.10;;;22.70;54.20;;;;;;6291140;28;20030;-72
2021/09/24 01:02:44;;;;;;;2.17;0.90;;;22.70;54.30;;;;;;6291893;28;20435;-72
2021/09/24 01:05:47;;;;;;;2.47;1.10;;;22.70;54.30;;;;;;6290541;28;20125;-73
2021/09/24 01:08:47;;;;;;;2.50;1.00;;;22.70;55.00;;;;;;6291609;28;20049;-73
2021/09/24 01:11:48;;;;;;;3.03;1.30;;;22.70;54.20;;;;;;6292029;28;20544;-72
2021/09/24 01:14:59;;;;;;;2.70;0.90;;;22.60;54.10;;;;;;6281710;28;20028;-73
2021/09/24 01:18:00;;;;;;;4.57;1.13;;;22.70;54.20;;;;;;6274032;28;20020;-72
2021/09/24 01:21:01;;;;;;;2.92;0.93;;;22.70;54.30;;;;;;6291761;28;20031;-72
2021/09/24 01:24:03;;;;;;;2.45;1.00;;;22.60;54.20;;;;;;6290980;28;20119;-72
2021/09/24 01:27:04;;;;;;;2.95;1.20;;;22.70;54.30;;;;;;6290240;28;20462;-72
2021/09/24 01:30:06;;;;;;;2.47;1.00;;;22.70;54.30;;;;;;6290638;28;20035;-72
2021/09/24 01:33:06;;;;;;;4.60;1.17;;;22.70;54.30;;;;;;6290650;28;20031;-72
2021/09/24 01:36:07;;;;;;;2.38;1.08;;;22.70;54.40;;;;;;6291007;28;20032;-72
2021/09/24 01:39:09;;;;;;;2.38;0.90;;;22.70;54.30;;;;;;6290490;28;20493;-72
2021/09/24 01:42:10;;;;;;;1.77;0.90;;;22.70;54.30;;;;;;6291731;28;20028;-73
2021/09/24 01:45:12;;;;;;;2.90;0.90;;;22.70;54.20;;;;;;6290380;28;20103;-72
2021/09/24 01:48:12;;;;;;;2.55;1.08;;;22.70;54.20;;;;;;6290428;28;20035;-72
2021/09/24 01:51:13;;;;;;;4.75;1.23;;;22.70;54.20;;;;;;6290450;28;20051;-72
2021/09/24 01:54:16;;;;;;;2.60;0.90;;;22.70;54.10;;;;;;6290882;28;20082;-72
2021/09/24 01:57:16;;;;;;;2.53;1.08;;;22.70;54.20;;;;;;6290836;28;20028;-72
2021/09/24 02:00:17;;;;;;;2.50;0.93;;;22.70;54.10;;;;;;6290560;28;20033;-72
2021/09/24 02:03:17;;;;;;;2.20;1.00;;;22.70;54.30;;;;;;6290255;28;20043;-72
2021/09/24 02:06:18;;;;;;;3.83;1.02;;;22.70;54.20;;;;;;6290660;28;20036;-72
2021/09/24 02:09:18;;;;;;;1.75;0.85;;;22.70;54.20;;;;;;6290208;28;20554;-73
2021/09/24 02:12:19;;;;;;;2.42;1.08;;;22.70;54.30;;;;;;6290993;28;20033;-72
2021/09/24 02:15:20;;;;;;;2.20;0.82;;;22.70;54.20;;;;;;6275640;28;20025;-72
2021/09/24 02:18:20;;;;;;;5.10;1.35;;;22.70;54.20;;;;;;6265464;28;20063;-72
2021/09/24 02:21:21;;;;;;;2.85;0.88;;;22.70;54.30;;;;;;6288278;28;20025;-72
2021/09/24 02:24:21;;;;;;;1.98;1.00;;;22.60;54.10;;;;;;6290433;28;20028;-72
2021/09/24 02:27:22;;;;;;;4.35;1.10;;;22.70;54.20;;;;;;6290481;28;20295;-72
2021/09/24 02:30:23;;;;;;;2.42;0.95;;;22.70;54.30;;;;;;6290148;28;20103;-72
2021/09/24 02:33:23;;;;;;;4.00;1.05;;;22.70;54.40;;;;;;6289845;28;20024;-72
2021/09/24 02:36:23;;;;;;;2.65;0.90;;;22.70;54.20;;;;;;6290384;28;20533;-72
2021/09/24 02:39:25;;;;;;;2.65;1.10;;;22.70;54.20;;;;;;6292319;28;20029;-72
2021/09/24 02:42:25;;;;;;;3.55;1.13;;;22.60;54.10;;;;;;6295501;28;20024;-72
2021/09/24 02:45:26;;;;;;;1.60;0.90;;;22.60;54.20;;;;;;6295190;28;20035;-72
2021/09/24 02:48:27;;;;;;;1.90;1.02;;;22.70;54.40;;;;;;6295065;28;20475;-72
2021/09/24 02:51:27;;;;;;;3.05;1.10;;;22.70;54.30;;;;;;6294205;28;20507;-72
2021/09/24 02:54:28;;;;;;;4.47;1.17;;;22.60;54.20;;;;;;6294877;28;20580;-72
2021/09/24 02:57:28;;;;;;;3.28;1.23;;;22.70;54.40;;;;;;6294785;28;20088;-72
2021/09/24 03:00:29;;;;;;;3.53;1.40;;;22.70;54.40;;;;;;6293918;28;20027;-72
2021/09/24 03:03:30;;;;;;;3.70;1.20;;;22.70;54.30;;;;;;6294183;28;20220;-72
2021/09/24 03:06:30;;;;;;;2.33;1.00;;;22.70;54.40;;;;;;6294189;28;20029;-73
2021/09/24 03:09:31;;;;;;;2.83;1.00;;;22.60;54.30;;;;;;6294265;28;20056;-72
2021/09/24 03:12:31;;;;;;;3.40;1.15;;;22.60;54.30;;;;;;6293981;28;20048;-71
2021/09/24 03:15:32;;;;;;;2.25;1.00;;;22.70;54.40;;;;;;6283483;28;20395;-72
2021/09/24 03:18:32;;;;;;;2.78;0.90;;;22.60;54.20;;;;;;6294106;28;20029;-72
2021/09/24 03:21:33;;;;;;;2.22;0.95;;;22.60;54.30;;;;;;6294276;28;20035;-72
2021/09/24 03:24:33;;;;;;;6.78;1.33;;;22.60;54.30;;;;;;6294539;28;20504;-72
2021/09/24 03:27:35;;;;;;;2.33;0.90;;;22.60;54.40;;;;;;6293631;28;20048;-72
2021/09/24 03:30:35;;;;;;;2.38;1.08;;;22.60;54.30;;;;;;6293742;28;20028;-72
2021/09/24 03:33:36;;;;;;;2.72;1.20;;;22.70;54.50;;;;;;6293867;28;20048;-72
2021/09/24 03:36:37;;;;;;;3.00;1.13;;;22.60;54.30;;;;;;6294004;28;20495;-72
2021/09/24 03:39:37;;;;;;;2.38;1.10;;;22.60;54.40;;;;;;6293274;28;20024;-72
2021/09/24 03:42:38;;;;;;;2.40;1.00;;;22.60;54.30;;;;;;6293837;28;20033;-72
2021/09/24 03:45:39;;;;;;;2.60;0.90;;;22.60;54.40;;;;;;6294047;28;20125;-72
2021/09/24 03:48:39;;;;;;;3.08;0.90;;;22.60;54.40;;;;;;6293540;28;20017;-72
2021/09/24 03:51:40;;;;;;;4.65;1.10;;;22.60;54.40;;;;;;6292303;28;20106;-72
2021/09/24 03:54:40;;;;;;;3.05;1.08;;;22.60;54.40;;;;;;6293678;28;20025;-72
2021/09/24 03:57:41;;;;;;;3.38;1.25;;;22.60;54.40;;;;;;6292972;28;20069;-72
2021/09/24 04:00:41;;;;;;;2.28;0.80;;;22.60;54.40;;;;;;6293120;28;20032;-72
2021/09/24 04:03:43;;;;;;;3.00;0.93;;;22.60;54.30;;;;;;6292951;28;20492;-72
2021/09/24 04:06:43;;;;;;;2.17;1.00;;;22.60;54.40;;;;;;6293355;28;20025;-72
2021/09/24 04:09:44;;;;;;;3.53;1.10;;;22.70;54.50;;;;;;6292388;28;20223;-72
2021/09/24 04:12:44;;;;;;;2.70;0.95;;;22.60;54.40;;;;;;6292582;28;20127;-72
2021/09/24 04:15:45;;;;;;;3.80;1.20;;;22.60;54.40;;;;;;6274911;28;20021;-72
2021/09/24 04:18:45;;;;;;;3.97;1.13;;;22.60;54.20;;;;;;6288379;28;20093;-72
2021/09/24 04:21:46;;;;;;;3.05;1.00;;;22.70;54.40;;;;;;6292083;28;20060;-72
2021/09/24 04:24:47;;;;;;;3.30;1.10;;;22.60;54.40;;;;;;6292524;28;20404;-72
2021/09/24 04:27:47;;;;;;;2.67;0.98;;;22.60;54.30;;;;;;6292591;28;20232;-72
2021/09/24 04:30:48;;;;;;;3.80;1.02;;;22.60;54.30;;;;;;6292474;28;20074;-72
2021/09/24 04:33:48;;;;;;;3.35;1.40;;;22.60;55.00;;;;;;6292548;28;20033;-72
2021/09/24 04:36:49;;;;;;;2.70;0.98;;;22.70;54.30;;;;;;6292803;28;20495;-72
2021/09/24 04:39:49;;;;;;;2.25;1.10;;;22.70;54.40;;;;;;6291847;28;20032;-72
2021/09/24 04:42:50;;;;;;;1.75;0.93;;;22.70;54.40;;;;;;6292381;28;20047;-72
2021/09/24 04:45:51;;;;;;;2.00;0.77;;;22.70;54.50;;;;;;6292279;28;20514;-72
2021/09/24 04:48:51;;;;;;;2.72;0.82;;;22.60;54.30;;;;;;6291761;28;20107;-71
2021/09/24 04:51:52;;;;;;;2.83;1.05;;;22.60;54.30;;;;;;6292344;28;20048;-72
2021/09/24 04:54:53;;;;;;;2.50;0.93;;;22.70;54.50;;;;;;6291688;28;20028;-72
2021/09/24 04:57:53;;;;;;;3.15;1.15;;;22.60;54.40;;;;;;6291562;28;20027;-72
2021/09/24 05:00:54;;;;;;;3.42;0.93;;;22.60;54.40;;;;;;6289018;28;20033;-72
2021/09/24 05:03:54;;;;;;;3.28;1.10;;;22.60;54.40;;;;;;6283725;28;20094;-72
2021/09/24 05:06:55;;;;;;;2.63;1.10;;;22.70;54.40;;;;;;6291628;28;20036;-72
2021/09/24 05:09:55;;;;;;;3.63;1.27;;;22.60;54.30;;;;;;6290835;28;20135;-72
2021/09/24 05:12:56;;;;;;;2.55;1.20;;;22.60;54.30;;;;;;6291033;28;20029;-72
2021/09/24 05:15:56;;;;;;;3.35;1.00;;;22.60;54.30;;;;;;6289830;28;20651;-72
2021/09/24 05:18:57;;;;;;;3.15;1.00;;;22.60;54.20;;;;;;6290599;28;20024;-73
2021/09/24 05:21:57;;;;;;;3.22;1.20;;;22.60;54.30;;;;;;6291322;28;20027;-72
2021/09/24 05:24:59;;;;;;;2.17;0.95;;;22.70;54.40;;;;;;6290769;28;20049;-72
2021/09/24 05:28:00;;;;;;;1.50;0.90;;;22.60;54.40;;;;;;6291069;28;20027;-71
2021/09/24 05:31:00;;;;;;;3.38;1.20;;;22.70;54.40;;;;;;6290617;28;20438;-72
2021/09/24 05:34:02;;;;;;;3.08;1.00;;;22.70;54.40;;;;;;6290884;28;20391;-72
2021/09/24 05:37:03;;;;;;;2.75;1.00;;;22.70;54.30;;;;;;6291243;28;20115;-72
2021/09/24 05:40:05;;;;;;;3.65;1.20;;;22.60;54.10;;;;;;6290586;28;20030;-72
2021/09/24 05:43:06;;;;;;;3.53;1.10;;;22.60;54.20;;;;;;6290719;28;20391;-73
2021/09/24 05:46:06;;;;;;;3.83;1.20;;;22.60;54.20;;;;;;6291198;28;20029;-72
2021/09/24 05:49:08;;;;;;;2.15;0.98;;;22.60;54.30;;;;;;6289871;28;20025;-72
2021/09/24 05:52:08;;;;;;;2.60;1.10;;;22.60;54.30;;;;;;6291056;28;20013;-73
2021/09/24 05:55:10;;;;;;;3.42;1.15;;;22.70;54.40;;;;;;6290486;28;20032;-72
2021/09/24 05:58:11;;;;;;;4.43;1.20;;;22.60;54.30;;;;;;6290386;28;20154;-72
2021/09/24 06:01:11;;;;;;;4.97;1.17;;;22.70;54.30;;;;;;6279993;28;20045;-72
2021/09/24 06:04:12;;;;;;;3.00;1.40;;;22.60;54.20;;;;;;6287332;28;20032;-72
2021/09/24 06:07:12;;;;;;;2.78;1.20;;;22.60;54.20;;;;;;6293124;28;20064;-73
2021/09/24 06:10:16;;;;;;;2.28;0.90;;;22.60;54.30;;;;;;6292758;28;20079;-72
2021/09/24 06:13:16;;;;;;;2.13;0.90;;;22.60;54.30;;;;;;6292370;28;20036;-72
2021/09/24 06:16:17;;;;;;;3.38;1.30;;;22.60;54.60;;;;;;6290776;28;20036;-72
2021/09/24 06:19:17;;;;;;;2.08;1.00;;;22.60;54.30;;;;;;6292313;28;20034;-72
2021/09/24 06:22:19;;;;;;;2.13;0.90;;;22.70;54.30;;;;;;6293996;28;20025;-72
2021/09/24 06:25:20;;;;;;;2.70;1.08;;;22.70;54.30;;;;;;6292780;28;20036;-72
2021/09/24 06:28:20;;;;;;;3.35;1.17;;;22.70;54.40;;;;;;6293075;28;20040;-72
2021/09/24 06:31:21;;;;;;;2.35;1.10;;;22.60;54.20;;;;;;6292889;28;20027;-72
2021/09/24 06:34:21;;;;;;;3.83;1.35;;;22.70;54.30;;;;;;6292404;28;20021;-72
2021/09/24 06:37:22;;;;;;;4.32;1.35;;;22.70;54.30;;;;;;6293044;28;20028;-72
2021/09/24 06:40:22;;;;;;;3.85;1.20;;;22.70;54.30;;;;;;6292411;28;20028;-72
2021/09/24 06:43:23;;;;;;;2.80;1.17;;;22.70;54.20;;;;;;6292869;28;20056;-72
2021/09/24 06:46:24;;;;;;;3.60;1.17;;;22.70;54.20;;;;;;6292336;28;20459;-71
2021/09/24 06:49:25;;;;;;;3.15;1.20;;;22.70;54.20;;;;;;6292144;28;20551;-72
2021/09/24 06:52:26;;;;;;;5.47;1.38;;;22.70;54.20;;;;;;6292378;28;20511;-72
2021/09/24 06:55:27;;;;;;;3.15;1.10;;;22.70;54.10;;;;;;6292304;28;20107;-72
2021/09/24 06:58:27;;;;;;;5.88;1.42;;;22.70;54.20;;;;;;6292702;28;20023;-72
2021/09/24 07:01:28;;;;;;;2.70;1.17;;;22.70;54.10;;;;;;6291993;28;20052;-72
2021/09/24 07:04:28;;;;;;;2.70;0.90;;;22.70;54.10;;;;;;6293017;28;20583;-72
2021/09/24 07:07:29;;;;;;;3.28;1.30;;;22.70;54.20;;;;;;6291289;28;20475;-72
2021/09/24 07:10:30;;;;;;;5.38;1.48;;;22.70;54.20;;;;;;6291542;28;20111;-72
2021/09/24 07:13:30;;;;;;;3.25;1.33;;;22.70;54.20;;;;;;6292227;28;20423;-72
2021/09/24 07:16:31;;;;;;;2.33;1.25;;;22.70;54.20;;;;;;6274636;28;20028;-72
2021/09/24 07:19:31;;;;;;;4.75;1.05;;;22.70;54.20;;;;;;6291979;28;20028;-72
2021/09/24 07:22:33;;;;;;;3.78;1.60;;;22.70;54.20;;;;;;6291847;28;20468;-72
2021/09/24 07:25:33;;;;;;;3.47;1.08;;;22.70;54.20;;;;;;6295142;28;20669;-72
2021/09/24 07:28:34;;;;;;;2.88;1.00;;;22.70;54.30;;;;;;6295883;28;20028;-72
2021/09/24 07:31:34;;;;;;;2.83;0.98;;;22.60;54.20;;;;;;6296227;28;20055;-72
2021/09/24 07:34:35;;;;;;;2.83;1.10;;;22.60;54.20;;;;;;6296561;28;20111;-72
2021/09/24 07:37:36;;;;;;;2.72;0.98;;;22.70;54.20;;;;;;6296148;28;20052;-72
2021/09/24 07:40:36;;;;;;;2.35;0.95;;;22.70;54.20;;;;;;6295652;28;20504;-72
2021/09/24 07:43:37;;;;;;;3.42;1.30;;;22.70;54.10;;;;;;6296036;28;20020;-72
2021/09/24 07:46:37;;;;;;;2.63;1.02;;;22.70;54.10;;;;;;6295719;28;20380;-72
2021/09/24 07:49:38;;;;;;;2.67;1.02;;;22.70;54.20;;;;;;6295817;28;20025;-72
2021/09/24 07:52:38;;;;;;;2.60;1.02;;;22.70;54.20;;;;;;6295838;28;20028;-72
2021/09/24 07:55:39;;;;;;;1.67;0.93;;;22.70;54.30;;;;;;6296019;28;20495;-72
2021/09/24 07:58:40;;;;;;;3.63;1.15;;;22.60;54.10;;;;;;6295725;28;20066;-72
2021/09/24 08:01:40;;;;;;;3.90;1.40;;;22.60;54.00;;;;;;6295643;28;20060;-72
2021/09/24 08:04:41;;;;;;;3.38;1.10;;;22.70;54.20;;;;;;6295839;28;20529;-72
2021/09/24 08:07:42;;;;;;;3.33;1.25;;;22.70;54.20;;;;;;6295528;28;20016;-72
2021/09/24 08:10:42;;;;;;;4.35;1.42;;;22.70;54.10;;;;;;6295071;28;20712;-72
2021/09/24 08:13:43;;;;;;;2.80;1.30;;;22.60;54.10;;;;;;6294773;28;20025;-72
2021/09/24 08:16:43;;;;;;;3.13;1.38;;;22.70;54.20;;;;;;6285245;28;20115;-72
2021/09/24 08:19:44;;;;;;;2.63;1.20;;;22.70;54.20;;;;;;6295614;28;20021;-72
2021/09/24 08:22:44;;;;;;;4.40;1.52;;;22.60;54.10;;;;;;6279858;28;20039;-71
2021/09/24 08:25:45;;;;;;;2.30;0.95;;;22.70;54.10;;;;;;6288989;28;20525;-72
2021/09/24 08:28:46;;;;;;;2.88;1.30;;;22.60;54.20;;;;;;6292746;28;20055;-72
2021/09/24 08:31:46;;;;;;;5.85;2.05;;;22.60;54.80;;;;;;6296071;28;20029;-72
2021/09/24 08:34:47;;;;;;;20.10;3.38;;;22.60;54.70;;;;;;6295002;28;20484;-72
2021/09/24 08:37:49;;;;;;;14.57;2.85;;;22.60;52.50;;;;;;6294336;28;20033;-72
2021/09/24 08:40:50;;;;;;;11.13;2.15;;;22.60;53.50;;;;;;6290698;28;20028;-73
2021/09/24 08:43:50;;;;;;;10.77;2.63;;;22.60;53.90;;;;;;6294640;28;20043;-72
2021/09/24 08:46:51;;;;;;;16.13;3.25;;;22.60;53.80;;;;;;6288981;28;20511;-72
2021/09/24 08:49:51;;;;;;;10.02;3.13;;;22.60;53.30;;;;;;6292145;28;20060;-72
2021/09/24 08:52:53;;;;;;;14.80;3.88;;;22.60;52.50;;;;;;6293426;28;20374;-72
2021/09/24 08:55:53;;;;;;;13.48;3.53;;;22.60;52.10;;;;;;6293337;28;20474;-73
2021/09/24 08:58:54;;;;;;;17.92;4.25;;;22.60;51.80;;;;;;6293196;28;20028;-72
2021/09/24 09:02:04;;;;;;;15.13;3.42;;;22.60;52.10;;;;;;6293891;28;20021;-72
2021/09/24 09:05:05;;;;;;;15.00;3.28;;;22.60;52.00;;;;;;6292699;28;20476;-73
2021/09/24 09:08:23;;;;;;;15.73;3.67;;;22.60;51.90;;;;;;6293460;28;20032;-72
2021/09/24 09:11:24;;;;;;;12.57;3.60;;;22.60;51.90;;;;;;6293715;28;20024;-72
2021/09/24 09:14:25;;;;;;;11.63;3.25;;;22.60;52.00;;;;;;6285704;28;20044;-72
2021/09/24 09:17:34;;;;;;;15.23;3.45;;;22.60;52.10;;;;;;6280396;28;20028;-72
2021/09/24 09:20:35;;;;;;;12.25;3.50;;;22.60;52.20;;;;;;6293005;28;20020;-73
2021/09/24 09:23:38;;;;;;;15.50;3.28;;;22.60;52.20;;;;;;6293077;28;20530;-72
2021/09/24 09:26:39;;;;;;;10.00;3.05;;;22.60;52.20;;;;;;6292956;28;20064;-72
2021/09/24 09:30:03;;;;;;;9.30;2.53;;;22.60;52.40;;;;;;6288221;28;20028;-73
2021/09/24 09:33:14;;;;;;;13.00;3.08;;;22.60;52.40;;;;;;6293072;28;20078;-73
2021/09/24 09:36:25;;;;;;;8.38;2.80;;;22.60;52.50;;;;;;6293397;28;20408;-72
2021/09/24 09:39:29;;;;;;;8.20;2.88;;;22.60;52.50;;;;;;6292885;28;20060;-73
2021/09/24 09:42:41;;;;;;;9.15;2.97;;;22.60;52.60;;;;;;6292998;28;20037;-72
2021/09/24 09:45:41;;;;;;;8.00;2.40;;;22.60;53.30;;;;;;6292645;28;20124;-72
2021/09/24 09:48:42;;;;;;;10.00;2.47;;;22.60;52.70;;;;;;6292081;28;20480;-72
2021/09/24 09:51:45;;;;;;;9.77;2.83;;;22.60;52.70;;;;;;6292734;28;20021;-72
2021/09/24 09:54:45;;;;;;;7.13;2.92;;;22.60;52.70;;;;;;6292649;28;20394;-73
2021/09/24 09:57:51;;;;;;;9.10;2.70;;;22.60;52.80;;;;;;6292879;28;20021;-72
2021/09/24 10:00:53;;;;;;;7.68;2.60;;;22.60;52.80;;;;;;6292317;28;20484;-72
2021/09/24 10:03:54;;;;;;;8.90;2.38;;;22.60;52.80;;;;;;6292410;28;20029;-72
2021/09/24 10:06:55;;;;;;;7.75;2.22;;;22.60;53.00;;;;;;6292342;28;20028;-72
2021/09/24 10:10:10;;;;;;;8.57;2.45;;;22.60;53.00;;;;;;6292182;28;20102;-72
2021/09/24 10:13:11;;;;;;;6.05;2.20;;;22.60;53.00;;;;;;6292018;28;20052;-72
2021/09/24 10:16:12;;;;;;;7.75;2.30;;;22.60;53.10;;;;;;6286073;28;20040;-72
2021/09/24 10:19:14;;;;;;;5.80;2.20;;;22.60;53.10;;;;;;6292033;28;20059;-72
2021/09/24 10:22:14;;;;;;;5.50;1.75;;;22.60;53.10;;;;;;6292029;28;20073;-72
2021/09/24 10:25:21;;;;;;;6.47;2.17;;;22.60;53.10;;;;;;6291399;28;20041;-72
2021/09/24 10:28:28;;;;;;;7.43;2.42;;;22.70;53.30;;;;;;6291452;28;20059;-72
2021/09/24 10:31:35;;;;;;;7.72;2.50;;;22.60;53.20;;;;;;6291763;28;20036;-72
2021/09/24 10:34:51;;;;;;;6.43;2.10;;;22.70;53.30;;;;;;6291396;28;20025;-73
2021/09/24 10:38:07;;;;;;;7.15;2.22;;;22.60;53.30;;;;;;6292321;28;20056;-72
2021/09/24 10:41:13;;;;;;;6.50;2.08;;;22.60;53.30;;;;;;6292077;28;20028;-73
2021/09/24 10:44:14;;;;;;;8.05;2.13;;;22.60;53.30;;;;;;6291682;28;20066;-72
2021/09/24 10:47:53;;;;;;;5.78;1.90;;;22.60;53.30;;;;;;6292334;28;20024;-72
2021/09/24 10:51:00;;;;;;;6.28;2.25;;;22.60;53.30;;;;;;6291587;28;20028;-72
2021/09/24 10:54:20;;;;;;;7.82;2.00;;;22.60;53.40;;;;;;6292082;28;20043;-72
2021/09/24 10:57:21;;;;;;;4.97;1.85;;;22.60;53.40;;;;;;6291889;28;20115;-72
2021/09/24 11:00:28;;;;;;;5.32;1.92;;;22.60;53.40;;;;;;6293904;28;20029;-72
2021/09/24 11:03:29;;;;;;;5.50;1.88;;;22.60;53.40;;;;;;6296432;28;20055;-72
2021/09/24 11:06:52;;;;;;;3.17;1.52;;;22.60;53.40;;;;;;6295940;28;20132;-72
2021/09/24 11:09:53;;;;;;;8.20;1.85;;;22.70;53.60;;;;;;6289936;28;20154;-72
2021/09/24 11:13:07;;;;;;;6.10;2.53;;;22.70;53.40;;;;;;6295971;28;20028;-73
2021/09/24 11:16:27;;;;;;;4.47;1.63;;;22.60;53.50;;;;;;6286169;28;20029;-72
2021/09/24 11:19:42;;;;;;;5.85;2.17;;;22.70;53.60;;;;;;6284952;28;20095;-72
2021/09/24 11:22:42;;;;;;;6.00;1.80;;;22.70;53.60;;;;;;6295424;28;20033;-73
2021/09/24 11:26:09;;;;;;;4.75;1.73;;;22.70;53.70;;;;;;6294727;28;20059;-72
2021/09/24 11:29:12;;;;;;;7.88;1.92;;;22.70;53.80;;;;;;6295662;28;20032;-72
2021/09/24 11:32:13;;;;;;;4.68;1.80;;;22.70;53.80;;;;;;6294961;28;20043;-72
2021/09/24 11:35:19;;;;;;;4.65;1.55;;;22.70;53.80;;;;;;6296089;28;20107;-72
2021/09/24 11:38:21;;;;;;;4.53;1.73;;;22.70;53.90;;;;;;6295646;28;20039;-72
2021/09/24 11:41:27;;;;;;;3.42;1.55;;;22.60;53.80;;;;;;6294713;28;20021;-72
2021/09/24 11:44:28;;;;;;;5.55;1.90;;;22.70;53.90;;;;;;6295405;28;20472;-72
2021/09/24 11:47:31;;;;;;;5.50;1.70;;;22.70;53.90;;;;;;6295688;28;20036;-73
2021/09/24 11:50:33;;;;;;;4.38;1.67;;;22.70;54.00;;;;;;6296106;28;20017;-73
2021/09/24 11:53:52;;;;;;;3.53;1.30;;;22.70;54.00;;;;;;6295289;28;20040;-72
2021/09/24 11:56:53;;;;;;;3.28;1.27;;;22.70;54.00;;;;;;6295751;28;20040;-71
2021/09/24 11:59:53;;;;;;;4.18;1.77;;;22.70;54.00;;;;;;6295107;28;20056;-73
2021/09/24 12:03:11;;;;;;;4.93;1.50;;;22.70;54.10;;;;;;6295134;28;20025;-73
2021/09/24 12:06:15;;;;;;;4.68;1.42;;;22.70;54.10;;;;;;6295545;28;20032;-72
2021/09/24 12:09:17;;;;;;;4.53;1.50;;;22.70;54.10;;;;;;6294773;28;20049;-73
2021/09/24 12:12:21;;;;;;;3.35;1.50;;;22.70;54.10;;;;;;6293931;28;20029;-73
2021/09/24 12:15:23;;;;;;;5.10;1.42;;;22.70;54.10;;;;;;6280268;28;20064;-72
2021/09/24 12:18:42;;;;;;;5.90;1.52;;;22.70;54.10;;;;;;6289249;28;20035;-72
2021/09/24 12:21:49;;;;;;;3.28;1.52;;;22.70;54.10;;;;;;6294821;28;20035;-72
2021/09/24 12:24:50;;;;;;;6.78;1.92;;;22.70;54.10;;;;;;6294807;28;20064;-72
2021/09/24 12:27:53;;;;;;;2.08;1.13;;;22.70;54.10;;;;;;6294583;28;20426;-73
2021/09/24 12:30:53;;;;;;;3.63;1.65;;;22.70;54.10;;;;;;6295025;28;20024;-73
2021/09/24 12:33:54;;;;;;;5.22;2.15;;;22.70;54.10;;;;;;6294227;28;20070;-73
2021/09/24 12:36:58;;;;;;;6.57;3.10;;;22.70;54.20;;;;;;6294152;28;20028;-71
2021/09/24 12:40:01;;;;;;;6.28;2.72;;;22.70;54.20;;;;;;6294567;28;20021;-73
2021/09/24 12:43:02;;;;;;;15.55;4.80;;;22.70;54.20;;;;;;6294732;28;20406;-73
2021/09/24 12:46:03;;;;;;;9.32;3.80;;;22.70;54.00;;;;;;6294854;28;20051;-73
2021/09/24 12:49:04;;;;;;;8.95;3.35;;;22.70;54.00;;;;;;6294206;28;20024;-73
2021/09/24 12:52:05;;;;;;;12.10;4.28;;;22.60;53.80;;;;;;6293942;28;20624;-73
2021/09/24 12:55:08;;;;;;;10.20;3.70;;;22.70;53.70;;;;;;6293882;28;20085;-73
2021/09/24 12:58:11;;;;;;;8.27;3.08;;;22.70;53.90;;;;;;6294009;28;20383;-73
2021/09/24 13:01:14;;;;;;;10.40;2.78;;;22.70;53.90;;;;;;6293609;28;20059;-72
2021/09/24 13:04:17;;;;;;;6.75;2.75;;;22.70;54.00;;;;;;6292801;28;20035;-72
2021/09/24 13:07:22;;;;;;;7.63;2.50;;;22.70;54.00;;;;;;6294389;28;20416;-73
2021/09/24 13:10:23;;;;;;;7.30;2.25;;;22.70;54.00;;;;;;6293735;28;20053;-73
2021/09/24 13:13:25;;;;;;;5.07;2.10;;;22.70;54.00;;;;;;6292068;28;20032;-73
2021/09/24 13:16:26;;;;;;;5.80;2.13;;;22.70;54.10;;;;;;6283166;28;20079;-73
2021/09/24 13:19:26;;;;;;;5.25;2.28;;;22.70;54.10;;;;;;6290262;28;20089;-73
2021/09/24 13:22:27;;;;;;;9.75;2.13;;;22.70;54.00;;;;;;6291631;28;20468;-72
2021/09/24 13:25:27;;;;;;;10.38;2.78;;;22.60;53.90;;;;;;6292185;28;20284;-73
2021/09/24 13:28:28;;;;;;;8.77;2.67;;;22.60;53.90;;;;;;6292576;28;20036;-72
2021/09/24 13:31:29;;;;;;;7.15;2.10;;;22.60;54.00;;;;;;6279104;28;20040;-73
2021/09/24 13:34:29;;;;;;;6.18;2.00;;;22.70;54.20;;;;;;6288456;28;20025;-74
2021/09/24 13:37:30;;;;;;;5.93;2.10;;;22.70;54.30;;;;;;6291757;28;20032;-73
2021/09/24 13:40:30;;;;;;;6.22;2.20;;;22.70;54.30;;;;;;6292259;28;20052;-73
2021/09/24 13:43:31;;;;;;;8.68;2.05;;;22.70;54.40;;;;;;6292072;28;20081;-73
2021/09/24 13:46:32;;;;;;;5.95;2.30;;;22.70;54.40;;;;;;6292005;28;20028;-73
2021/09/24 13:49:34;;;;;;;5.82;2.15;;;22.70;54.40;;;;;;6293792;28;20032;-73
2021/09/24 13:52:35;;;;;;;8.20;1.98;;;22.70;54.60;;;;;;6293559;28;20032;-72
2021/09/24 13:55:37;;;;;;;7.32;1.70;;;22.70;55.00;;;;;;6294342;28;20021;-72
2021/09/24 13:58:37;;;;;;;4.35;1.63;;;22.60;54.90;;;;;;6292459;28;20036;-73
2021/09/24 14:01:39;;;;;;;10.30;2.15;;;22.60;55.10;;;;;;6293802;28;20074;-73
2021/09/24 14:04:39;;;;;;;12.85;2.05;;;22.60;55.10;;;;;;6287860;28;20510;-73
2021/09/24 14:07:40;;;;;;;5.72;1.80;;;22.60;55.20;;;;;;6292569;28;20035;-73
2021/09/24 14:10:41;;;;;;;5.32;1.80;;;22.60;55.10;;;;;;6283331;28;20576;-73
2021/09/24 14:13:42;;;;;;;11.27;1.80;;;22.60;55.20;;;;;;6288442;28;20024;-72
2021/09/24 14:16:43;;;;;;;5.43;1.98;;;22.50;54.90;;;;;;6274893;28;20103;-73
2021/09/24 14:19:43;;;;;;;4.95;1.50;;;22.50;55.00;;;;;;6291642;28;20090;-72
2021/09/24 14:22:44;;;;;;;5.32;1.65;;;22.50;55.00;;;;;;6290966;28;20032;-72
2021/09/24 14:25:45;;;;;;;7.03;1.77;;;22.50;55.10;;;;;;6289898;28;20060;-72
2021/09/24 14:28:45;;;;;;;4.55;1.50;;;22.50;55.00;;;;;;6291106;28;20029;-72
2021/09/24 14:31:46;;;;;;;3.42;1.48;;;22.60;54.60;;;;;;6292025;28;20020;-73
2021/09/24 14:34:46;;;;;;;4.38;1.70;;;22.50;54.20;;;;;;6293082;28;20025;-72
2021/09/24 14:37:47;;;;;;;4.40;1.65;;;22.60;54.30;;;;;;6292870;28;20036;-72
2021/09/24 14:40:47;;;;;;;7.97;1.80;;;22.60;54.30;;;;;;6296692;28;20062;-73
2021/09/24 14:43:48;;;;;;;4.50;1.45;;;22.60;54.20;;;;;;6296541;28;20035;-72
2021/09/24 14:46:51;;;;;;;7.22;2.03;;;22.60;54.20;;;;;;6284685;28;20037;-73
2021/09/24 14:49:51;;;;;;;13.93;1.52;;;22.60;54.30;;;;;;6293995;28;20130;-72
2021/09/24 14:52:52;;;;;;;5.32;1.60;;;22.60;54.30;;;;;;6290378;28;20021;-73
2021/09/24 14:55:53;;;;;;;5.43;1.50;;;22.60;54.30;;;;;;6296359;28;20491;-73
2021/09/24 14:58:53;;;;;;;7.70;1.65;;;22.60;54.30;;;;;;6296499;28;20027;-73
2021/09/24 15:01:54;;;;;;;5.35;1.50;;;22.60;54.40;;;;;;6295574;28;20052;-72
2021/09/24 15:04:54;;;;;;;5.13;1.20;;;22.60;54.40;;;;;;6295500;28;20464;-73
2021/09/24 15:07:55;;;;;;;7.05;1.50;;;22.60;54.40;;;;;;6293698;28;20048;-73
2021/09/24 15:10:55;;;;;;;2.85;1.40;;;22.60;54.40;;;;;;6286076;28;20037;-73
2021/09/24 15:13:56;;;;;;;5.78;1.77;;;22.60;54.40;;;;;;6287989;28;20492;-72
2021/09/24 15:16:58;;;;;;;5.25;1.35;;;22.60;54.40;;;;;;6274855;28;20028;-72
2021/09/24 15:19:59;;;;;;;6.57;1.60;;;22.60;54.40;;;;;;6295565;28;20024;-73
2021/09/24 15:23:00;;;;;;;3.50;1.42;;;22.60;54.40;;;;;;6295605;28;20385;-73
2021/09/24 15:26:00;;;;;;;7.65;1.65;;;22.60;54.50;;;;;;6294019;28;20115;-73
2021/09/24 15:29:01;;;;;;;4.03;1.30;;;22.60;54.70;;;;;;6295039;28;20036;-73
2021/09/24 15:32:02;;;;;;;8.40;1.63;;;22.60;54.60;;;;;;6281611;28;20041;-72
2021/09/24 15:35:02;;;;;;;6.05;1.55;;;22.60;54.60;;;;;;6301480;28;20032;-72
2021/09/24 15:38:03;;;;;;;8.70;1.65;;;22.60;54.50;;;;;;6293783;28;20039;-72
2021/09/24 15:41:06;;;;;;;5.45;1.52;;;22.60;54.60;;;;;;6294714;28;20053;-73
2021/09/24 15:44:07;;;;;;;6.75;1.50;;;22.60;54.50;;;;;;6295368;28;20040;-73
2021/09/24 15:47:07;;;;;;;6.90;1.60;;;22.70;54.60;;;;;;6303204;28;20028;-72